createdAt,value
2022-08-26T00:14:36.928Z,86.2
2022-08-26T00:34:36.857Z,85.9
2022-08-26T00:54:36.886Z,86.1
2022-08-26T01:14:36.807Z,86.6
2022-08-26T01:34:36.847Z,86.0
2022-08-26T01:54:36.761Z,87.9
2022-08-26T02:14:36.790Z,85.7
2022-08-26T02:34:37.006Z,86.5
2022-08-26T02:54:36.749Z,86.1
2022-08-26T03:14:36.676Z,86.8
2022-08-26T03:34:36.699Z,87.6
2022-08-26T03:54:36.626Z,87.6
2022-08-26T04:14:36.654Z,87.6
2022-08-26T04:34:36.577Z,87.3
2022-08-26T04:54:36.612Z,87.4
2022-08-26T05:14:36.529Z,86.4
2022-08-26T05:34:36.558Z,87.3
2022-08-26T05:54:36.488Z,87.3
2022-08-26T06:14:36.515Z,86.9
2022-08-26T06:34:36.438Z,87.1
2022-08-26T06:54:36.459Z,85.3
2022-08-26T07:14:36.386Z,83.7
2022-08-26T07:34:36.412Z,83.0
2022-08-26T07:54:36.331Z,81.6
2022-08-26T08:14:36.359Z,79.4
2022-08-26T08:34:36.284Z,73.7
2022-08-26T08:54:36.205Z,71.1
2022-08-26T09:14:36.234Z,69.9
2022-08-26T09:34:36.171Z,67.0
2022-08-26T09:54:36.191Z,63.6
2022-08-26T10:14:36.120Z,58.9
2022-08-26T10:34:36.148Z,60.9
2022-08-26T10:54:36.078Z,64.2
2022-08-26T11:14:36.011Z,60.5
2022-08-26T11:34:36.050Z,60.8
2022-08-26T11:54:35.969Z,57.6
2022-08-26T12:14:35.902Z,56.7
2022-08-26T12:34:35.934Z,52.9
2022-08-26T12:54:35.866Z,53.3
2022-08-26T13:14:35.837Z,58.2
2022-08-26T13:34:35.866Z,55.1
2022-08-26T13:54:35.803Z,55.0
2022-08-26T14:14:35.741Z,55.4
2022-08-26T14:34:35.781Z,61.0
2022-08-26T14:54:35.728Z,61.6
2022-08-26T15:14:35.662Z,61.9
2022-08-26T15:34:35.606Z,62.6
2022-08-26T15:54:35.653Z,61.6
2022-08-26T16:14:35.604Z,62.6
2022-08-26T16:34:35.551Z,64.0
2022-08-26T16:54:35.506Z,63.5
2022-08-26T17:14:35.460Z,65.6
2022-08-26T17:34:35.504Z,68.6
2022-08-26T17:54:35.443Z,71.7
2022-08-26T18:14:35.391Z,72.4
2022-08-26T18:34:35.334Z,73.8
2022-08-26T18:54:35.384Z,77.5
2022-08-26T19:14:35.316Z,76.3
2022-08-26T19:34:35.259Z,79.7
2022-08-26T19:54:35.294Z,79.3
2022-08-26T20:14:35.235Z,80.5
2022-08-26T20:34:35.175Z,83.8
2022-08-26T20:54:35.223Z,85.4
2022-08-26T21:14:35.143Z,86.9
2022-08-26T21:34:35.079Z,86.6
2022-08-26T21:54:35.112Z,86.2
2022-08-26T22:14:35.055Z,85.7
2022-08-26T22:34:35.085Z,84.9
2022-08-26T22:54:35.027Z,86.0
2022-08-26T23:14:34.952Z,87.9
2022-08-26T23:34:35.009Z,89.7
2022-08-26T23:54:34.921Z,90.4
